createdAt,value
2023-05-03T00:01:11.383Z,38.78
2023-05-03T00:03:38.896Z,38.94
2023-05-03T00:06:10.994Z,38.68
2023-05-03T00:08:38.526Z,38.41
2023-05-03T00:11:05.820Z,38.29
2023-05-03T00:13:32.922Z,38.39
2023-05-03T00:16:00.021Z,43.72
2023-05-03T00:18:27.365Z,46.45
2023-05-03T00:20:54.634Z,48.92
2023-05-03T00:23:21.475Z,49.69
2023-05-03T00:25:55.482Z,49.51
2023-05-03T00:28:22.726Z,47.85
2023-05-03T00:30:49.802Z,44.44
2023-05-03T00:33:16.721Z,43.85
2023-05-03T00:35:44.073Z,47.32
2023-05-03T00:38:11.417Z,48.10
2023-05-03T00:40:38.284Z,45.89
2023-05-03T00:43:05.361Z,44.94
2023-05-03T00:45:33.487Z,46.38
2023-05-03T00:48:00.581Z,49.06
2023-05-03T00:50:27.693Z,46.09
2023-05-03T00:52:54.674Z,44.13
2023-05-03T00:55:21.800Z,43.01
2023-05-03T00:57:49.265Z,45.28
2023-05-03T01:00:17.384Z,47.82
2023-05-03T01:02:45.008Z,48.00
2023-05-03T01:05:12.326Z,48.64
2023-05-03T01:08:05.784Z,48.24
2023-05-03T01:10:38.759Z,49.54
2023-05-03T01:13:11.102Z,50.86
2023-05-03T01:15:45.755Z,50.63
2023-05-03T01:18:18.549Z,50.57
2023-05-03T01:20:48.104Z,50.93
2023-05-03T01:23:18.320Z,48.15
2023-05-03T01:25:45.625Z,46.25
2023-05-03T01:28:12.662Z,45.45
2023-05-03T01:30:39.525Z,46.06
2023-05-03T01:33:24.826Z,45.65
2023-05-03T01:36:16.616Z,45.33
2023-05-03T01:38:43.703Z,45.45
2023-05-03T01:41:11.525Z,45.18
2023-05-03T01:43:38.785Z,44.93
2023-05-03T01:46:06.152Z,44.85
2023-05-03T01:48:33.185Z,48.44
2023-05-03T01:51:00.041Z,52.21
2023-05-03T01:53:26.832Z,53.10
2023-05-03T01:55:53.538Z,51.97
2023-05-03T01:58:20.564Z,51.62
2023-05-03T02:00:48.008Z,54.01
2023-05-03T02:03:15.218Z,54.93
2023-05-03T02:05:42.308Z,55.65
2023-05-03T02:08:09.105Z,53.13
2023-05-03T02:10:35.836Z,49.84
2023-05-03T02:13:03.202Z,49.87
2023-05-03T02:15:30.164Z,54.36
2023-05-03T02:17:57.948Z,55.04
2023-05-03T02:20:24.797Z,57.08
2023-05-03T02:22:52.213Z,55.79
2023-05-03T02:25:19.197Z,51.54
2023-05-03T02:27:46.032Z,49.56
2023-05-03T02:30:12.980Z,48.71
2023-05-03T02:32:41.585Z,46.96
2023-05-03T02:35:09.223Z,48.00
2023-05-03T02:37:36.304Z,54.42
2023-05-03T02:40:05.661Z,55.75
2023-05-03T02:42:33.019Z,52.25
2023-05-03T02:45:00.057Z,50.71
2023-05-03T02:47:27.556Z,49.84
2023-05-03T02:49:54.690Z,48.89
2023-05-03T02:52:23.009Z,47.73
2023-05-03T02:54:49.946Z,47.48
2023-05-03T02:57:17.197Z,48.52
2023-05-03T02:59:44.129Z,48.81
2023-05-03T03:02:11.075Z,48.84
2023-05-03T03:04:38.104Z,50.10
2023-05-03T03:07:05.539Z,58.22
2023-05-03T03:09:33.095Z,55.60
2023-05-03T03:12:04.807Z,56.92
2023-05-03T03:14:32.761Z,58.23
2023-05-03T03:17:00.694Z,56.03
2023-05-03T03:19:27.642Z,59.02
2023-05-03T03:21:54.579Z,62.53
2023-05-03T03:24:21.774Z,63.22
2023-05-03T03:26:50.015Z,63.47
2023-05-03T03:29:16.877Z,60.11
2023-05-03T03:31:44.282Z,61.73
2023-05-03T03:34:12.739Z,57.41
2023-05-03T03:36:39.975Z,56.24
2023-05-03T03:39:07.445Z,54.86
2023-05-03T03:41:35.152Z,53.12
2023-05-03T03:44:02.301Z,55.95
2023-05-03T03:46:29.932Z,58.36
2023-05-03T03:48:57.217Z,57.27
2023-05-03T03:51:25.078Z,54.44
2023-05-03T03:53:52.332Z,53.34
2023-05-03T03:56:21.269Z,51.59
2023-05-03T03:58:49.246Z,52.02
2023-05-03T04:01:16.277Z,51.51
2023-05-03T04:03:49.356Z,49.67
2023-05-03T04:06:16.541Z,48.27
2023-05-03T04:08:43.523Z,47.44
2023-05-03T04:11:14.036Z,46.90
2023-05-03T04:13:46.662Z,46.40
2023-05-03T04:16:13.451Z,46.56
2023-05-03T04:18:41.335Z,46.01
2023-05-03T04:21:08.403Z,48.62
2023-05-03T04:23:36.206Z,50.59
2023-05-03T04:26:05.075Z,48.54
2023-05-03T04:28:33.415Z,47.28
2023-05-03T04:31:00.329Z,46.49
2023-05-03T04:33:29.389Z,47.19
2023-05-03T04:35:58.688Z,46.88
2023-05-03T04:38:25.902Z,45.60
2023-05-03T04:40:53.750Z,44.81
2023-05-03T04:43:21.418Z,43.22
2023-05-03T04:45:49.412Z,42.66
2023-05-03T04:48:19.321Z,42.13
2023-05-03T04:50:46.534Z,41.51
2023-05-03T04:53:15.142Z,41.06
2023-05-03T04:55:43.511Z,40.17
2023-05-03T04:58:10.644Z,39.73
2023-05-03T05:00:37.901Z,39.35
2023-05-03T05:03:09.396Z,38.62
2023-05-03T05:05:36.617Z,37.43
2023-05-03T05:08:03.931Z,37.02
2023-05-03T05:10:40.622Z,36.94
2023-05-03T05:13:08.312Z,37.14
2023-05-03T05:15:35.270Z,37.02
2023-05-03T05:18:02.210Z,36.74
2023-05-03T05:20:29.513Z,36.73
2023-05-03T05:22:57.188Z,36.42
2023-05-03T05:25:24.181Z,35.81
2023-05-03T05:27:51.347Z,35.62
2023-05-03T05:30:18.827Z,36.01
2023-05-03T05:32:46.125Z,36.94
2023-05-03T05:35:15.660Z,37.07
2023-05-03T05:37:42.701Z,37.18
2023-05-03T05:40:10.025Z,37.26
2023-05-03T05:42:41.882Z,37.33
2023-05-03T05:45:09.913Z,37.20
2023-05-03T05:47:37.315Z,37.40
2023-05-03T05:50:12.228Z,37.67
2023-05-03T05:52:45.714Z,37.30
2023-05-03T05:55:15.210Z,37.38
2023-05-03T05:57:42.885Z,37.19
2023-05-03T06:00:14.136Z,37.17
2023-05-03T06:02:41.659Z,37.23
2023-05-03T06:05:11.849Z,37.49
2023-05-03T06:07:40.067Z,37.36
2023-05-03T06:10:07.431Z,37.90
2023-05-03T06:12:36.104Z,37.88
2023-05-03T06:15:05.011Z,37.76
2023-05-03T06:17:36.631Z,37.64
2023-05-03T06:20:04.892Z,36.86
2023-05-03T06:22:33.204Z,36.72
2023-05-03T06:25:00.060Z,36.44
2023-05-03T06:27:27.511Z,36.32
2023-05-03T06:29:55.509Z,36.27
2023-05-03T06:32:22.890Z,35.86
2023-05-03T06:34:50.062Z,36.15
2023-05-03T06:37:18.078Z,35.58
2023-05-03T06:39:44.907Z,35.85
2023-05-03T06:42:11.665Z,35.27
2023-05-03T06:44:40.351Z,35.65
2023-05-03T06:47:07.245Z,35.38
2023-05-03T06:49:34.575Z,35.02
2023-05-03T06:52:01.829Z,34.85
2023-05-03T06:54:29.045Z,34.54
2023-05-03T06:56:55.776Z,34.24
2023-05-03T06:59:22.551Z,34.05
2023-05-03T07:01:50.308Z,33.92
2023-05-03T07:04:17.318Z,33.93
2023-05-03T07:06:55.151Z,34.09
2023-05-03T07:09:35.376Z,34.05
2023-05-03T07:12:09.177Z,34.96
2023-05-03T07:14:35.957Z,34.81
2023-05-03T07:17:03.030Z,34.46
2023-05-03T07:19:29.930Z,34.20
2023-05-03T07:21:56.699Z,35.16
2023-05-03T07:24:25.429Z,33.95
2023-05-03T07:26:53.037Z,33.38
2023-05-03T07:29:20.549Z,33.53
2023-05-03T07:31:47.284Z,33.88
2023-05-03T07:34:14.310Z,33.72
2023-05-03T07:36:41.354Z,33.12
2023-05-03T07:39:08.292Z,33.50
2023-05-03T07:41:37.088Z,33.01
2023-05-03T07:44:04.138Z,33.06
2023-05-03T07:46:34.563Z,32.42
2023-05-03T07:49:02.162Z,32.50
2023-05-03T07:51:29.191Z,32.41
2023-05-03T07:53:55.928Z,32.82
2023-05-03T07:56:22.981Z,33.04
2023-05-03T07:58:57.041Z,31.66
2023-05-03T08:01:32.475Z,31.61
2023-05-03T08:03:59.423Z,31.35
2023-05-03T08:06:27.234Z,31.17
2023-05-03T08:08:54.706Z,31.14
2023-05-03T08:11:21.643Z,32.40
2023-05-03T08:13:48.406Z,32.33
2023-05-03T08:16:15.941Z,32.17
2023-05-03T08:18:42.983Z,31.81
2023-05-03T08:21:11.851Z,32.50
2023-05-03T08:23:38.936Z,32.45
2023-05-03T08:26:08.838Z,33.07
2023-05-03T08:28:37.424Z,33.01
2023-05-03T08:31:04.383Z,32.29
2023-05-03T08:33:31.381Z,32.25
2023-05-03T08:35:58.220Z,32.13
2023-05-03T08:38:25.911Z,31.82
2023-05-03T08:40:52.682Z,31.71
2023-05-03T08:43:20.717Z,31.89
2023-05-03T08:45:47.912Z,31.48
2023-05-03T08:48:14.931Z,31.08
2023-05-03T08:50:41.738Z,30.27
2023-05-03T08:53:09.795Z,30.46
2023-05-03T08:55:36.810Z,30.81
2023-05-03T08:58:09.829Z,31.30
2023-05-03T09:00:37.996Z,30.53
2023-05-03T09:03:04.859Z,30.53
2023-05-03T09:05:35.817Z,30.25
2023-05-03T09:08:04.704Z,29.83
2023-05-03T09:10:33.527Z,29.89
2023-05-03T09:13:01.769Z,30.22
2023-05-03T09:15:29.835Z,30.76
2023-05-03T09:18:10.123Z,30.19
2023-05-03T09:20:39.056Z,30.66
2023-05-03T09:23:09.182Z,30.99
2023-05-03T09:25:43.398Z,31.44
2023-05-03T09:28:10.352Z,31.56
2023-05-03T09:30:37.056Z,31.60
2023-05-03T09:33:04.203Z,30.55
2023-05-03T09:35:34.499Z,30.12
2023-05-03T09:38:01.359Z,29.65
2023-05-03T09:40:28.850Z,30.40
2023-05-03T09:43:09.754Z,30.57
2023-05-03T09:45:37.322Z,29.58
2023-05-03T09:48:05.309Z,30.71
2023-05-03T09:50:33.390Z,31.11
2023-05-03T09:53:01.028Z,30.97
2023-05-03T09:55:27.836Z,30.79
2023-05-03T09:57:55.066Z,30.97
2023-05-03T10:00:21.979Z,31.28
2023-05-03T10:02:48.814Z,30.76
2023-05-03T10:05:15.666Z,30.25
2023-05-03T10:07:42.901Z,30.75
2023-05-03T10:10:09.722Z,31.13
2023-05-03T10:12:36.652Z,31.39
2023-05-03T10:15:05.722Z,31.28
2023-05-03T10:17:46.348Z,30.90
2023-05-03T10:20:28.833Z,30.31
2023-05-03T10:23:05.126Z,29.82
2023-05-03T10:25:34.404Z,29.61
2023-05-03T10:28:03.070Z,29.53
2023-05-03T10:30:40.105Z,29.63
2023-05-03T10:33:12.892Z,30.29
2023-05-03T10:35:43.874Z,30.27
2023-05-03T10:38:21.102Z,29.95
2023-05-03T10:40:47.942Z,29.85
2023-05-03T10:43:30.594Z,29.68
2023-05-03T10:45:58.245Z,29.12
2023-05-03T10:48:25.107Z,29.34
2023-05-03T10:50:52.499Z,29.05
2023-05-03T10:53:37.770Z,29.78
2023-05-03T10:56:07.540Z,29.74
2023-05-03T10:58:48.057Z,29.44
2023-05-03T11:01:16.412Z,28.86
2023-05-03T11:04:05.009Z,28.73
2023-05-03T11:06:36.564Z,28.19
2023-05-03T11:09:06.096Z,28.05
2023-05-03T11:11:35.337Z,28.09
2023-05-03T11:14:02.670Z,28.62
2023-05-03T11:16:30.433Z,28.24
2023-05-03T11:18:57.466Z,28.85
2023-05-03T11:21:24.579Z,28.66
2023-05-03T11:23:51.427Z,28.24
2023-05-03T11:26:20.609Z,28.25
2023-05-03T11:28:47.708Z,28.86
2023-05-03T11:31:14.589Z,28.32
2023-05-03T11:33:41.661Z,28.55
2023-05-03T11:36:09.055Z,28.44
2023-05-03T11:38:37.672Z,28.57
2023-05-03T11:41:15.629Z,29.04
2023-05-03T11:43:52.811Z,28.29
2023-05-03T11:46:26.083Z,29.14
2023-05-03T11:48:52.855Z,32.71
2023-05-03T11:51:22.766Z,33.38
2023-05-03T11:53:50.236Z,32.30
2023-05-03T11:56:18.390Z,31.67
2023-05-03T11:58:57.964Z,30.67
2023-05-03T12:01:26.201Z,30.36
2023-05-03T12:04:04.596Z,30.31
2023-05-03T12:06:35.970Z,30.26
2023-05-03T12:09:03.859Z,30.37
2023-05-03T12:11:40.246Z,30.49
2023-05-03T12:14:07.358Z,30.61
2023-05-03T12:16:52.174Z,30.37
2023-05-03T12:19:26.803Z,30.62
2023-05-03T12:22:13.254Z,30.65
2023-05-03T12:24:40.830Z,30.47
2023-05-03T12:27:08.666Z,30.78
2023-05-03T12:29:36.474Z,32.77
2023-05-03T12:32:04.595Z,33.06
2023-05-03T12:34:36.366Z,33.18
2023-05-03T12:37:05.347Z,32.95
2023-05-03T12:39:34.163Z,33.08
2023-05-03T12:42:07.079Z,32.94
2023-05-03T12:44:36.047Z,33.01
2023-05-03T12:47:03.592Z,33.45
2023-05-03T12:49:31.322Z,33.22
2023-05-03T12:52:22.423Z,32.28
2023-05-03T12:54:49.247Z,32.10
2023-05-03T12:57:22.649Z,31.87
2023-05-03T12:59:53.499Z,31.63
2023-05-03T13:04:58.769Z,31.21
2023-05-03T13:07:29.680Z,31.15
2023-05-03T13:12:32.014Z,33.26
2023-05-03T13:15:00.277Z,34.25
2023-05-03T13:17:27.046Z,32.44
2023-05-03T13:19:53.838Z,32.66
2023-05-03T13:22:20.905Z,34.05
2023-05-03T13:24:47.841Z,34.67
2023-05-03T13:27:15.190Z,35.13
2023-05-03T13:29:42.247Z,35.88
2023-05-03T13:32:10.044Z,35.82
2023-05-03T13:34:37.210Z,36.05
2023-05-03T13:37:03.936Z,34.90
2023-05-03T13:39:31.510Z,34.14
2023-05-03T13:41:58.321Z,34.04
2023-05-03T13:44:25.538Z,33.25
2023-05-03T13:46:52.346Z,33.24
2023-05-03T13:49:19.127Z,34.12
2023-05-03T13:51:46.296Z,34.67
2023-05-03T13:54:13.326Z,35.06
2023-05-03T13:56:42.220Z,34.61
2023-05-03T13:59:11.265Z,35.16
2023-05-03T14:01:38.186Z,35.30
2023-05-03T14:04:05.754Z,35.10
2023-05-03T14:06:33.567Z,35.03
2023-05-03T14:09:01.593Z,35.49
2023-05-03T14:11:29.346Z,35.03
2023-05-03T14:13:58.580Z,34.86
2023-05-03T14:18:56.312Z,34.72
2023-05-03T14:21:23.053Z,35.17
2023-05-03T14:23:50.178Z,35.43
2023-05-03T14:26:17.379Z,33.59
2023-05-03T14:28:44.187Z,33.07
2023-05-03T14:31:11.385Z,33.32
2023-05-03T14:33:38.665Z,33.15
2023-05-03T14:36:08.769Z,33.06
2023-05-03T14:38:36.690Z,33.33
2023-05-03T14:41:04.003Z,33.76
2023-05-03T14:43:31.831Z,33.62
2023-05-03T14:45:59.166Z,34.18
2023-05-03T14:48:25.911Z,34.65
2023-05-03T14:50:52.862Z,34.98
2023-05-03T14:53:19.829Z,35.50
2023-05-03T14:55:46.630Z,35.90
2023-05-03T14:58:13.416Z,35.94
2023-05-03T15:00:40.479Z,36.54
2023-05-03T15:03:11.407Z,36.62
2023-05-03T15:05:48.929Z,36.92
2023-05-03T15:08:17.489Z,36.40
2023-05-03T15:10:44.890Z,36.98
2023-05-03T15:13:12.622Z,37.34
2023-05-03T15:15:40.208Z,37.69
2023-05-03T15:18:07.867Z,37.64
2023-05-03T15:20:35.146Z,38.17
2023-05-03T15:23:04.746Z,38.21
2023-05-03T15:25:31.856Z,38.24
2023-05-03T15:28:00.067Z,38.23
2023-05-03T15:30:28.024Z,38.22
2023-05-03T15:32:54.868Z,38.62
2023-05-03T15:35:21.615Z,38.66
2023-05-03T15:37:48.433Z,39.00
2023-05-03T15:40:15.462Z,39.37
2023-05-03T15:42:42.658Z,39.59
2023-05-03T15:45:09.974Z,39.83
2023-05-03T15:47:36.946Z,39.90
2023-05-03T15:50:05.839Z,40.13
2023-05-03T15:52:34.156Z,40.05
2023-05-03T15:55:00.883Z,40.42
2023-05-03T15:57:28.083Z,40.53
2023-05-03T15:59:55.749Z,41.00
2023-05-03T16:02:22.858Z,41.42
2023-05-03T16:04:50.537Z,42.48
2023-05-03T16:07:17.991Z,43.16
2023-05-03T16:09:46.076Z,43.98
2023-05-03T16:12:12.884Z,44.25
2023-05-03T16:14:39.807Z,45.09
2023-05-03T16:17:06.557Z,46.02
2023-05-03T16:19:33.908Z,46.30
2023-05-03T16:22:00.718Z,47.22
2023-05-03T16:24:27.820Z,48.59
2023-05-03T16:26:54.769Z,48.86
2023-05-03T16:29:21.856Z,49.62
2023-05-03T16:31:49.033Z,50.87
2023-05-03T16:34:16.368Z,51.37
2023-05-03T16:36:44.581Z,51.93
2023-05-03T16:39:12.100Z,53.34
2023-05-03T16:41:39.039Z,53.25
2023-05-03T16:44:06.673Z,54.19
2023-05-03T16:46:38.755Z,54.35
2023-05-03T16:49:05.809Z,56.50
2023-05-03T16:51:33.415Z,56.12
2023-05-03T16:54:03.086Z,56.73
2023-05-03T16:56:32.539Z,58.08
2023-05-03T16:58:59.542Z,58.00
2023-05-03T17:01:26.459Z,58.68
2023-05-03T17:03:53.699Z,59.66
2023-05-03T17:06:20.671Z,60.83
2023-05-03T17:08:47.800Z,62.05
2023-05-03T17:11:14.574Z,62.48
2023-05-03T17:13:41.867Z,62.63
2023-05-03T17:16:12.057Z,62.17
2023-05-03T17:18:39.811Z,61.48
2023-05-03T17:21:07.791Z,61.62
2023-05-03T17:23:37.368Z,62.77
2023-05-03T17:26:08.320Z,63.81
2023-05-03T17:28:35.445Z,63.56
2023-05-03T17:31:02.573Z,64.15
2023-05-03T17:33:29.517Z,64.24
2023-05-03T17:35:57.162Z,64.13
2023-05-03T17:38:24.460Z,64.34
2023-05-03T17:40:51.426Z,64.97
2023-05-03T17:43:18.794Z,65.97
2023-05-03T17:45:46.758Z,67.41
2023-05-03T17:48:13.979Z,67.10
2023-05-03T17:50:45.613Z,66.62
2023-05-03T17:53:12.402Z,65.89
2023-05-03T17:55:39.481Z,65.75
2023-05-03T17:58:06.486Z,66.10
2023-05-03T18:00:33.635Z,66.68
2023-05-03T18:03:01.043Z,66.13
2023-05-03T18:05:33.395Z,78.78
2023-05-03T18:08:00.135Z,79.81
2023-05-03T18:10:26.956Z,79.24
2023-05-03T18:12:53.717Z,78.62
2023-05-03T18:15:20.914Z,77.46
2023-05-03T18:17:47.879Z,82.28
2023-05-03T18:20:15.393Z,100.00
2023-05-03T18:22:42.303Z,100.00
2023-05-03T18:25:09.988Z,100.00
2023-05-03T18:27:36.889Z,100.00
2023-05-03T18:30:06.084Z,100.00
2023-05-03T18:32:34.134Z,100.00
2023-05-03T18:35:01.971Z,100.00
2023-05-03T18:37:29.103Z,97.57
2023-05-03T18:39:55.964Z,92.92
2023-05-03T18:42:22.977Z,92.07
2023-05-03T18:44:49.876Z,90.59
2023-05-03T18:47:20.081Z,88.79
2023-05-03T18:49:49.769Z,85.91
2023-05-03T18:52:16.663Z,85.59
2023-05-03T18:54:43.459Z,85.83
2023-05-03T18:57:11.111Z,86.65
2023-05-03T18:59:45.488Z,94.19
2023-05-03T19:02:19.842Z,100.00
2023-05-03T19:04:46.869Z,100.00
2023-05-03T19:07:13.988Z,100.00
2023-05-03T19:09:40.964Z,100.00
2023-05-03T19:12:08.141Z,100.00
2023-05-03T19:14:40.419Z,100.00
2023-05-03T19:17:07.592Z,100.00
2023-05-03T19:19:34.857Z,100.00
2023-05-03T19:22:02.007Z,100.00
2023-05-03T19:24:29.074Z,100.00
2023-05-03T19:26:55.918Z,100.00
2023-05-03T19:29:22.758Z,100.00
2023-05-03T19:31:49.740Z,100.00
2023-05-03T19:34:16.463Z,100.00
2023-05-03T19:36:43.145Z,100.00
2023-05-03T19:39:12.922Z,100.00
2023-05-03T19:41:39.611Z,100.00
2023-05-03T19:44:06.580Z,100.00
2023-05-03T19:46:34.750Z,100.00
2023-05-03T19:49:01.717Z,100.00
2023-05-03T19:51:28.939Z,100.00
2023-05-03T19:53:56.841Z,100.00
2023-05-03T19:56:24.487Z,100.00
2023-05-03T19:58:51.205Z,100.00
2023-05-03T20:01:18.115Z,100.00
2023-05-03T20:03:46.200Z,100.00
2023-05-03T20:06:13.615Z,100.00
2023-05-03T20:08:40.448Z,100.00
2023-05-03T20:11:09.709Z,100.00
2023-05-03T20:13:36.611Z,100.00
2023-05-03T20:16:04.629Z,100.00
2023-05-03T20:18:31.702Z,100.00
2023-05-03T20:20:58.496Z,100.00
2023-05-03T20:23:26.944Z,100.00
2023-05-03T20:25:53.792Z,100.00
2023-05-03T20:28:21.084Z,100.00
2023-05-03T20:30:47.937Z,100.00
2023-05-03T20:33:15.400Z,100.00
2023-05-03T20:35:42.359Z,100.00
2023-05-03T20:38:09.181Z,100.00
2023-05-03T20:40:36.032Z,100.00
2023-05-03T20:43:03.660Z,100.00
2023-05-03T20:45:30.843Z,100.00
2023-05-03T20:47:57.803Z,100.00
2023-05-03T20:50:24.735Z,100.00
2023-05-03T20:52:51.501Z,100.00
2023-05-03T20:55:18.392Z,100.00
2023-05-03T20:57:45.294Z,100.00
2023-05-03T21:00:15.081Z,100.00
2023-05-03T21:02:42.631Z,100.00
2023-05-03T21:05:10.544Z,100.00
2023-05-03T21:07:38.031Z,100.00
2023-05-03T21:10:06.629Z,100.00
2023-05-03T21:12:34.090Z,100.00
2023-05-03T21:15:00.901Z,100.00
2023-05-03T21:17:27.788Z,100.00
2023-05-03T21:19:55.180Z,100.00
2023-05-03T21:22:22.155Z,100.00
2023-05-03T21:24:49.497Z,100.00
2023-05-03T21:27:18.591Z,100.00
2023-05-03T21:29:46.215Z,100.00
2023-05-03T21:32:12.961Z,100.00
2023-05-03T21:34:39.715Z,100.00
2023-05-03T21:37:06.779Z,100.00
2023-05-03T21:39:33.778Z,100.00
2023-05-03T21:42:00.679Z,100.00
2023-05-03T21:44:27.635Z,100.00
2023-05-03T21:46:54.714Z,100.00
2023-05-03T21:49:21.645Z,100.00
2023-05-03T21:51:48.372Z,100.00
2023-05-03T21:54:16.600Z,100.00
2023-05-03T21:56:43.462Z,100.00
2023-05-03T21:59:10.282Z,100.00
2023-05-03T22:01:37.432Z,100.00
2023-05-03T22:04:04.991Z,100.00
2023-05-03T22:06:32.110Z,100.00
2023-05-03T22:08:59.200Z,100.00
2023-05-03T22:11:26.560Z,100.00
2023-05-03T22:14:06.741Z,100.00
2023-05-03T22:16:38.522Z,100.00
2023-05-03T22:19:07.330Z,100.00
2023-05-03T22:21:35.127Z,100.00
2023-05-03T22:24:02.218Z,100.00
2023-05-03T22:26:29.526Z,100.00
2023-05-03T22:28:56.497Z,100.00
2023-05-03T22:31:24.266Z,100.00
2023-05-03T22:33:51.485Z,100.00
2023-05-03T22:36:18.399Z,100.00
2023-05-03T22:38:45.293Z,100.00
2023-05-03T22:41:12.083Z,100.00
2023-05-03T22:43:38.958Z,100.00
2023-05-03T22:46:05.929Z,100.00
2023-05-03T22:48:33.565Z,100.00
2023-05-03T22:51:01.321Z,100.00
2023-05-03T22:53:28.108Z,100.00
2023-05-03T22:55:55.768Z,100.00
2023-05-03T22:58:23.600Z,100.00
2023-05-03T23:00:51.948Z,100.00
2023-05-03T23:03:19.548Z,100.00
2023-05-03T23:05:46.989Z,100.00
2023-05-03T23:08:13.976Z,100.00
2023-05-03T23:10:41.346Z,100.00
2023-05-03T23:13:09.097Z,100.00
2023-05-03T23:15:36.355Z,100.00
2023-05-03T23:18:03.490Z,100.00
2023-05-03T23:20:30.391Z,100.00
2023-05-03T23:22:57.287Z,100.00
2023-05-03T23:25:24.021Z,100.00
2023-05-03T23:27:51.211Z,100.00
2023-05-03T23:30:18.978Z,100.00
2023-05-03T23:32:46.903Z,100.00
2023-05-03T23:35:14.670Z,100.00
2023-05-03T23:37:41.570Z,100.00
2023-05-03T23:40:08.963Z,100.00
2023-05-03T23:42:36.029Z,100.00
2023-05-03T23:45:03.422Z,100.00
2023-05-03T23:47:30.601Z,100.00
2023-05-03T23:49:57.479Z,100.00
2023-05-03T23:52:24.199Z,100.00
2023-05-03T23:54:51.273Z,100.00
2023-05-03T23:57:18.026Z,100.00
2023-05-03T23:59:44.950Z,100.00
